sensor_id;sensor_type;location;lat;lon;timestamp;P1;durP1;ratioP1;P2;durP2;ratioP2
5349;SDS011;2697;42.144;24.794;2023-03-01T00:01:48;4.90;;;3.43;;
5349;SDS011;2697;42.144;24.794;2023-03-01T00:04:13;5.10;;;2.93;;
5349;SDS011;2697;42.144;24.794;2023-03-01T00:06:39;3.53;;;3.10;;
5349;SDS011;2697;42.144;24.794;2023-03-01T00:09:04;3.80;;;3.20;;
5349;SDS011;2697;42.144;24.794;2023-03-01T00:11:30;4.07;;;3.00;;
5349;SDS011;2697;42.144;24.794;2023-03-01T00:13:57;3.53;;;2.90;;
5349;SDS011;2697;42.144;24.794;2023-03-01T00:16:27;4.20;;;3.60;;
5349;SDS011;2697;42.144;24.794;2023-03-01T00:18:55;4.30;;;3.53;;
5349;SDS011;2697;42.144;24.794;2023-03-01T00:21:21;4.10;;;3.20;;
5349;SDS011;2697;42.144;24.794;2023-03-01T00:23:47;6.70;;;4.30;;
5349;SDS011;2697;42.144;24.794;2023-03-01T00:26:14;7.27;;;4.50;;
5349;SDS011;2697;42.144;24.794;2023-03-01T00:28:40;5.43;;;4.00;;
5349;SDS011;2697;42.144;24.794;2023-03-01T00:31:10;5.23;;;4.60;;
5349;SDS011;2697;42.144;24.794;2023-03-01T00:33:40;9.07;;;5.90;;
5349;SDS011;2697;42.144;24.794;2023-03-01T00:36:06;7.40;;;5.33;;
5349;SDS011;2697;42.144;24.794;2023-03-01T00:38:36;15.20;;;6.90;;
5349;SDS011;2697;42.144;24.794;2023-03-01T00:41:04;9.53;;;6.07;;
5349;SDS011;2697;42.144;24.794;2023-03-01T00:43:34;11.27;;;6.10;;
5349;SDS011;2697;42.144;24.794;2023-03-01T00:46:08;9.20;;;6.40;;
5349;SDS011;2697;42.144;24.794;2023-03-01T00:48:36;11.87;;;6.43;;
5349;SDS011;2697;42.144;24.794;2023-03-01T00:53:30;4.90;;;3.70;;
5349;SDS011;2697;42.144;24.794;2023-03-01T00:55:57;5.73;;;4.03;;
5349;SDS011;2697;42.144;24.794;2023-03-01T00:58:23;6.20;;;5.43;;
5349;SDS011;2697;42.144;24.794;2023-03-01T01:00:48;7.10;;;4.70;;
5349;SDS011;2697;42.144;24.794;2023-03-01T01:03:14;8.10;;;5.07;;
5349;SDS011;2697;42.144;24.794;2023-03-01T01:05:39;8.57;;;4.10;;
5349;SDS011;2697;42.144;24.794;2023-03-01T01:08:04;7.07;;;4.50;;
5349;SDS011;2697;42.144;24.794;2023-03-01T01:10:30;4.40;;;4.00;;
5349;SDS011;2697;42.144;24.794;2023-03-01T01:12:58;5.13;;;3.50;;
5349;SDS011;2697;42.144;24.794;2023-03-01T01:15:23;6.40;;;4.50;;
5349;SDS011;2697;42.144;24.794;2023-03-01T01:17:48;4.17;;;3.50;;
5349;SDS011;2697;42.144;24.794;2023-03-01T01:20:14;5.53;;;3.80;;
5349;SDS011;2697;42.144;24.794;2023-03-01T01:22:39;6.17;;;4.03;;
5349;SDS011;2697;42.144;24.794;2023-03-01T01:25:05;10.80;;;3.70;;
5349;SDS011;2697;42.144;24.794;2023-03-01T01:27:31;5.33;;;3.50;;
5349;SDS011;2697;42.144;24.794;2023-03-01T01:29:56;5.67;;;4.23;;
5349;SDS011;2697;42.144;24.794;2023-03-01T01:32:22;8.73;;;4.03;;
5349;SDS011;2697;42.144;24.794;2023-03-01T01:34:47;5.03;;;3.40;;
5349;SDS011;2697;42.144;24.794;2023-03-01T01:37:12;4.20;;;3.30;;
5349;SDS011;2697;42.144;24.794;2023-03-01T01:39:38;8.13;;;4.07;;
5349;SDS011;2697;42.144;24.794;2023-03-01T01:42:03;7.27;;;3.97;;
5349;SDS011;2697;42.144;24.794;2023-03-01T01:44:29;5.30;;;3.47;;
5349;SDS011;2697;42.144;24.794;2023-03-01T01:47:05;7.10;;;4.10;;
5349;SDS011;2697;42.144;24.794;2023-03-01T01:49:39;5.77;;;4.53;;
5349;SDS011;2697;42.144;24.794;2023-03-01T01:52:11;5.57;;;4.20;;
5349;SDS011;2697;42.144;24.794;2023-03-01T01:54:40;3.97;;;3.47;;
5349;SDS011;2697;42.144;24.794;2023-03-01T01:57:16;6.00;;;3.37;;
5349;SDS011;2697;42.144;24.794;2023-03-01T01:59:47;5.00;;;3.27;;
5349;SDS011;2697;42.144;24.794;2023-03-01T02:02:17;6.13;;;4.00;;
5349;SDS011;2697;42.144;24.794;2023-03-01T02:04:43;7.00;;;4.70;;
5349;SDS011;2697;42.144;24.794;2023-03-01T02:07:13;5.23;;;4.30;;
5349;SDS011;2697;42.144;24.794;2023-03-01T02:09:42;6.73;;;4.10;;
5349;SDS011;2697;42.144;24.794;2023-03-01T02:12:10;5.73;;;4.00;;
5349;SDS011;2697;42.144;24.794;2023-03-01T02:14:37;3.70;;;2.70;;
5349;SDS011;2697;42.144;24.794;2023-03-01T02:17:02;7.97;;;4.60;;
5349;SDS011;2697;42.144;24.794;2023-03-01T02:22:36;6.23;;;4.70;;
5349;SDS011;2697;42.144;24.794;2023-03-01T02:27:49;8.13;;;5.20;;
5349;SDS011;2697;42.144;24.794;2023-03-01T02:30:37;4.97;;;4.40;;
5349;SDS011;2697;42.144;24.794;2023-03-01T02:33:22;11.03;;;5.33;;
5349;SDS011;2697;42.144;24.794;2023-03-01T02:35:50;6.30;;;4.47;;
5349;SDS011;2697;42.144;24.794;2023-03-01T02:38:16;11.67;;;6.27;;
5349;SDS011;2697;42.144;24.794;2023-03-01T02:40:41;16.53;;;5.83;;
5349;SDS011;2697;42.144;24.794;2023-03-01T02:43:09;13.83;;;6.77;;
5349;SDS011;2697;42.144;24.794;2023-03-01T02:45:37;15.97;;;9.10;;
5349;SDS011;2697;42.144;24.794;2023-03-01T02:48:08;15.57;;;9.60;;
5349;SDS011;2697;42.144;24.794;2023-03-01T02:50:53;12.60;;;6.90;;
5349;SDS011;2697;42.144;24.794;2023-03-01T02:53:35;10.93;;;6.60;;
5349;SDS011;2697;42.144;24.794;2023-03-01T02:56:26;13.20;;;6.63;;
5349;SDS011;2697;42.144;24.794;2023-03-01T02:58:53;21.23;;;9.13;;
5349;SDS011;2697;42.144;24.794;2023-03-01T03:01:19;15.60;;;10.33;;
5349;SDS011;2697;42.144;24.794;2023-03-01T03:03:45;15.13;;;8.20;;
5349;SDS011;2697;42.144;24.794;2023-03-01T03:06:10;17.47;;;8.83;;
5349;SDS011;2697;42.144;24.794;2023-03-01T03:08:36;15.87;;;9.80;;
5349;SDS011;2697;42.144;24.794;2023-03-01T03:11:02;20.53;;;9.70;;
5349;SDS011;2697;42.144;24.794;2023-03-01T03:13:27;12.87;;;7.43;;
5349;SDS011;2697;42.144;24.794;2023-03-01T03:15:53;8.43;;;5.40;;
5349;SDS011;2697;42.144;24.794;2023-03-01T03:18:20;9.30;;;5.60;;
5349;SDS011;2697;42.144;24.794;2023-03-01T03:20:47;7.60;;;4.10;;
5349;SDS011;2697;42.144;24.794;2023-03-01T03:23:12;5.80;;;4.03;;
5349;SDS011;2697;42.144;24.794;2023-03-01T03:25:38;5.90;;;4.40;;
5349;SDS011;2697;42.144;24.794;2023-03-01T03:28:04;8.40;;;5.03;;
5349;SDS011;2697;42.144;24.794;2023-03-01T03:30:34;12.33;;;4.97;;
5349;SDS011;2697;42.144;24.794;2023-03-01T03:33:02;10.60;;;5.37;;
5349;SDS011;2697;42.144;24.794;2023-03-01T03:35:32;11.03;;;5.07;;
5349;SDS011;2697;42.144;24.794;2023-03-01T03:38:00;11.60;;;6.20;;
5349;SDS011;2697;42.144;24.794;2023-03-01T03:40:39;8.40;;;5.47;;
5349;SDS011;2697;42.144;24.794;2023-03-01T03:43:06;7.90;;;5.57;;
5349;SDS011;2697;42.144;24.794;2023-03-01T03:45:34;8.17;;;5.47;;
5349;SDS011;2697;42.144;24.794;2023-03-01T03:48:00;9.90;;;7.20;;
5349;SDS011;2697;42.144;24.794;2023-03-01T03:50:26;9.40;;;5.67;;
5349;SDS011;2697;42.144;24.794;2023-03-01T03:52:52;12.37;;;7.10;;
5349;SDS011;2697;42.144;24.794;2023-03-01T03:55:18;17.33;;;8.07;;
5349;SDS011;2697;42.144;24.794;2023-03-01T03:57:44;17.33;;;8.80;;
5349;SDS011;2697;42.144;24.794;2023-03-01T04:00:19;17.77;;;9.23;;
5349;SDS011;2697;42.144;24.794;2023-03-01T04:03:23;21.87;;;8.30;;
5349;SDS011;2697;42.144;24.794;2023-03-01T04:05:50;23.30;;;8.10;;
5349;SDS011;2697;42.144;24.794;2023-03-01T04:08:16;15.13;;;8.17;;
5349;SDS011;2697;42.144;24.794;2023-03-01T04:10:45;12.70;;;6.20;;
5349;SDS011;2697;42.144;24.794;2023-03-01T04:13:14;10.13;;;5.70;;
5349;SDS011;2697;42.144;24.794;2023-03-01T04:15:42;10.00;;;6.03;;
5349;SDS011;2697;42.144;24.794;2023-03-01T04:18:08;8.83;;;4.80;;
5349;SDS011;2697;42.144;24.794;2023-03-01T04:20:36;10.30;;;6.40;;
5349;SDS011;2697;42.144;24.794;2023-03-01T04:23:03;7.87;;;4.80;;
5349;SDS011;2697;42.144;24.794;2023-03-01T04:25:42;6.23;;;4.67;;
5349;SDS011;2697;42.144;24.794;2023-03-01T04:28:16;7.03;;;5.10;;
5349;SDS011;2697;42.144;24.794;2023-03-01T04:30:42;9.33;;;7.37;;
5349;SDS011;2697;42.144;24.794;2023-03-01T04:33:08;6.07;;;4.63;;
5349;SDS011;2697;42.144;24.794;2023-03-01T04:35:35;6.80;;;4.90;;
5349;SDS011;2697;42.144;24.794;2023-03-01T04:38:02;8.87;;;5.03;;
5349;SDS011;2697;42.144;24.794;2023-03-01T04:40:27;8.43;;;4.97;;
5349;SDS011;2697;42.144;24.794;2023-03-01T04:42:53;10.80;;;5.27;;
5349;SDS011;2697;42.144;24.794;2023-03-01T04:45:19;8.87;;;5.40;;
5349;SDS011;2697;42.144;24.794;2023-03-01T04:47:45;8.43;;;5.43;;
5349;SDS011;2697;42.144;24.794;2023-03-01T04:50:12;9.90;;;4.63;;
5349;SDS011;2697;42.144;24.794;2023-03-01T04:52:40;8.47;;;4.33;;
5349;SDS011;2697;42.144;24.794;2023-03-01T04:55:06;8.90;;;5.70;;
5349;SDS011;2697;42.144;24.794;2023-03-01T04:57:32;6.93;;;5.20;;
5349;SDS011;2697;42.144;24.794;2023-03-01T04:59:58;8.50;;;5.23;;
5349;SDS011;2697;42.144;24.794;2023-03-01T05:02:23;10.57;;;6.57;;
5349;SDS011;2697;42.144;24.794;2023-03-01T05:04:49;14.00;;;5.90;;
5349;SDS011;2697;42.144;24.794;2023-03-01T05:07:14;13.20;;;6.70;;
5349;SDS011;2697;42.144;24.794;2023-03-01T05:09:47;8.50;;;5.70;;
5349;SDS011;2697;42.144;24.794;2023-03-01T05:12:12;11.67;;;6.50;;
5349;SDS011;2697;42.144;24.794;2023-03-01T05:14:39;6.67;;;4.50;;
5349;SDS011;2697;42.144;24.794;2023-03-01T05:17:04;10.60;;;5.60;;
5349;SDS011;2697;42.144;24.794;2023-03-01T05:19:30;14.70;;;6.03;;
5349;SDS011;2697;42.144;24.794;2023-03-01T05:21:57;11.57;;;6.50;;
5349;SDS011;2697;42.144;24.794;2023-03-01T05:24:32;15.73;;;6.83;;
5349;SDS011;2697;42.144;24.794;2023-03-01T05:26:59;20.77;;;7.80;;
5349;SDS011;2697;42.144;24.794;2023-03-01T05:29:26;17.57;;;8.60;;
5349;SDS011;2697;42.144;24.794;2023-03-01T05:31:54;16.30;;;7.90;;
5349;SDS011;2697;42.144;24.794;2023-03-01T05:34:27;15.17;;;7.47;;
5349;SDS011;2697;42.144;24.794;2023-03-01T05:36:55;16.67;;;8.07;;
5349;SDS011;2697;42.144;24.794;2023-03-01T05:39:21;23.90;;;10.43;;
5349;SDS011;2697;42.144;24.794;2023-03-01T05:41:48;16.43;;;8.87;;
5349;SDS011;2697;42.144;24.794;2023-03-01T05:44:17;19.20;;;6.77;;
5349;SDS011;2697;42.144;24.794;2023-03-01T05:46:42;12.97;;;6.87;;
5349;SDS011;2697;42.144;24.794;2023-03-01T05:49:08;16.07;;;9.07;;
5349;SDS011;2697;42.144;24.794;2023-03-01T05:51:33;18.23;;;8.23;;
5349;SDS011;2697;42.144;24.794;2023-03-01T05:53:59;10.17;;;5.60;;
5349;SDS011;2697;42.144;24.794;2023-03-01T05:56:24;19.63;;;9.50;;
5349;SDS011;2697;42.144;24.794;2023-03-01T05:58:49;17.83;;;9.50;;
5349;SDS011;2697;42.144;24.794;2023-03-01T06:01:15;21.57;;;8.90;;
5349;SDS011;2697;42.144;24.794;2023-03-01T06:03:40;25.27;;;9.43;;
5349;SDS011;2697;42.144;24.794;2023-03-01T06:06:06;17.97;;;8.53;;
5349;SDS011;2697;42.144;24.794;2023-03-01T06:08:31;17.63;;;9.60;;
5349;SDS011;2697;42.144;24.794;2023-03-01T06:10:57;19.53;;;5.90;;
5349;SDS011;2697;42.144;24.794;2023-03-01T06:13:22;20.60;;;10.27;;
5349;SDS011;2697;42.144;24.794;2023-03-01T06:15:48;8.27;;;6.17;;
5349;SDS011;2697;42.144;24.794;2023-03-01T06:18:14;12.20;;;7.77;;
5349;SDS011;2697;42.144;24.794;2023-03-01T06:20:39;13.63;;;7.70;;
5349;SDS011;2697;42.144;24.794;2023-03-01T06:23:04;15.13;;;8.07;;
5349;SDS011;2697;42.144;24.794;2023-03-01T06:25:30;14.70;;;8.53;;
5349;SDS011;2697;42.144;24.794;2023-03-01T06:27:55;17.97;;;6.63;;
5349;SDS011;2697;42.144;24.794;2023-03-01T06:30:21;35.23;;;10.53;;
5349;SDS011;2697;42.144;24.794;2023-03-01T06:32:48;19.07;;;9.47;;
5349;SDS011;2697;42.144;24.794;2023-03-01T06:35:15;20.57;;;9.80;;
5349;SDS011;2697;42.144;24.794;2023-03-01T06:37:45;18.20;;;8.47;;
5349;SDS011;2697;42.144;24.794;2023-03-01T06:40:11;24.97;;;8.77;;
5349;SDS011;2697;42.144;24.794;2023-03-01T06:42:39;15.53;;;7.93;;
5349;SDS011;2697;42.144;24.794;2023-03-01T06:45:07;15.70;;;7.93;;
5349;SDS011;2697;42.144;24.794;2023-03-01T06:47:33;16.87;;;8.50;;
5349;SDS011;2697;42.144;24.794;2023-03-01T06:49:59;19.93;;;6.77;;
5349;SDS011;2697;42.144;24.794;2023-03-01T06:52:24;13.73;;;7.40;;
5349;SDS011;2697;42.144;24.794;2023-03-01T06:54:50;11.63;;;6.87;;
5349;SDS011;2697;42.144;24.794;2023-03-01T06:57:16;11.70;;;7.03;;
5349;SDS011;2697;42.144;24.794;2023-03-01T06:59:41;14.80;;;7.50;;
5349;SDS011;2697;42.144;24.794;2023-03-01T07:02:09;15.50;;;7.40;;
5349;SDS011;2697;42.144;24.794;2023-03-01T07:04:36;24.30;;;8.17;;
5349;SDS011;2697;42.144;24.794;2023-03-01T07:07:02;18.33;;;7.00;;
5349;SDS011;2697;42.144;24.794;2023-03-01T07:09:27;14.70;;;6.90;;
5349;SDS011;2697;42.144;24.794;2023-03-01T07:11:53;24.73;;;8.13;;
5349;SDS011;2697;42.144;24.794;2023-03-01T07:14:18;14.40;;;6.60;;
5349;SDS011;2697;42.144;24.794;2023-03-01T07:16:44;11.83;;;5.30;;
5349;SDS011;2697;42.144;24.794;2023-03-01T07:19:10;19.50;;;6.30;;
5349;SDS011;2697;42.144;24.794;2023-03-01T07:21:36;10.27;;;3.80;;
5349;SDS011;2697;42.144;24.794;2023-03-01T07:24:03;9.30;;;4.50;;
5349;SDS011;2697;42.144;24.794;2023-03-01T07:26:32;7.77;;;5.27;;
5349;SDS011;2697;42.144;24.794;2023-03-01T07:29:01;12.20;;;5.00;;
5349;SDS011;2697;42.144;24.794;2023-03-01T07:31:27;10.13;;;5.43;;
5349;SDS011;2697;42.144;24.794;2023-03-01T07:33:53;9.70;;;4.20;;
5349;SDS011;2697;42.144;24.794;2023-03-01T07:36:19;6.17;;;4.53;;
5349;SDS011;2697;42.144;24.794;2023-03-01T07:38:45;6.20;;;4.30;;
5349;SDS011;2697;42.144;24.794;2023-03-01T07:41:10;6.33;;;3.70;;
5349;SDS011;2697;42.144;24.794;2023-03-01T07:43:36;2.87;;;2.60;;
5349;SDS011;2697;42.144;24.794;2023-03-01T07:46:02;7.37;;;3.47;;
5349;SDS011;2697;42.144;24.794;2023-03-01T07:48:28;5.93;;;2.80;;
5349;SDS011;2697;42.144;24.794;2023-03-01T07:50:57;4.53;;;3.17;;
5349;SDS011;2697;42.144;24.794;2023-03-01T07:53:24;10.83;;;3.03;;
5349;SDS011;2697;42.144;24.794;2023-03-01T07:55:49;12.80;;;3.17;;
5349;SDS011;2697;42.144;24.794;2023-03-01T07:58:14;3.40;;;2.40;;
5349;SDS011;2697;42.144;24.794;2023-03-01T08:00:40;7.63;;;2.23;;
5349;SDS011;2697;42.144;24.794;2023-03-01T08:03:05;2.13;;;1.97;;
5349;SDS011;2697;42.144;24.794;2023-03-01T08:05:31;2.63;;;2.40;;
5349;SDS011;2697;42.144;24.794;2023-03-01T08:07:57;4.47;;;2.50;;
5349;SDS011;2697;42.144;24.794;2023-03-01T08:10:22;4.07;;;1.90;;
5349;SDS011;2697;42.144;24.794;2023-03-01T08:12:50;9.87;;;2.50;;
5349;SDS011;2697;42.144;24.794;2023-03-01T08:15:16;2.87;;;2.40;;
5349;SDS011;2697;42.144;24.794;2023-03-01T08:17:43;2.13;;;1.27;;
5349;SDS011;2697;42.144;24.794;2023-03-01T08:20:09;1.63;;;0.70;;
5349;SDS011;2697;42.144;24.794;2023-03-01T08:22:37;2.13;;;1.00;;
5349;SDS011;2697;42.144;24.794;2023-03-01T08:25:02;1.83;;;1.60;;
5349;SDS011;2697;42.144;24.794;2023-03-01T08:27:28;1.83;;;1.67;;
5349;SDS011;2697;42.144;24.794;2023-03-01T08:29:53;1.40;;;1.30;;
5349;SDS011;2697;42.144;24.794;2023-03-01T08:32:19;1.53;;;1.40;;
5349;SDS011;2697;42.144;24.794;2023-03-01T08:34:46;1.83;;;1.17;;
5349;SDS011;2697;42.144;24.794;2023-03-01T08:37:12;1.37;;;0.77;;
5349;SDS011;2697;42.144;24.794;2023-03-01T08:39:37;1.67;;;1.53;;
5349;SDS011;2697;42.144;24.794;2023-03-01T08:42:02;1.43;;;1.17;;
5349;SDS011;2697;42.144;24.794;2023-03-01T08:44:28;1.43;;;1.10;;
5349;SDS011;2697;42.144;24.794;2023-03-01T08:46:53;3.37;;;1.27;;
5349;SDS011;2697;42.144;24.794;2023-03-01T08:49:20;3.00;;;1.00;;
5349;SDS011;2697;42.144;24.794;2023-03-01T08:51:46;4.03;;;1.40;;
5349;SDS011;2697;42.144;24.794;2023-03-01T08:54:13;2.23;;;1.13;;
5349;SDS011;2697;42.144;24.794;2023-03-01T08:56:41;1.27;;;1.00;;
5349;SDS011;2697;42.144;24.794;2023-03-01T08:59:06;1.60;;;1.00;;
5349;SDS011;2697;42.144;24.794;2023-03-01T09:01:32;0.97;;;0.97;;
5349;SDS011;2697;42.144;24.794;2023-03-01T09:03:58;0.90;;;0.80;;
5349;SDS011;2697;42.144;24.794;2023-03-01T09:06:24;2.60;;;1.23;;
5349;SDS011;2697;42.144;24.794;2023-03-01T09:08:49;1.10;;;1.00;;
5349;SDS011;2697;42.144;24.794;2023-03-01T09:11:19;1.50;;;1.40;;
5349;SDS011;2697;42.144;24.794;2023-03-01T09:13:46;9.17;;;2.00;;
5349;SDS011;2697;42.144;24.794;2023-03-01T09:16:13;2.17;;;1.97;;
5349;SDS011;2697;42.144;24.794;2023-03-01T09:18:41;1.73;;;1.63;;
5349;SDS011;2697;42.144;24.794;2023-03-01T09:21:08;2.70;;;1.47;;
5349;SDS011;2697;42.144;24.794;2023-03-01T09:23:36;0.70;;;0.70;;
5349;SDS011;2697;42.144;24.794;2023-03-01T09:26:04;1.50;;;1.40;;
5349;SDS011;2697;42.144;24.794;2023-03-01T09:28:30;1.73;;;1.47;;
5349;SDS011;2697;42.144;24.794;2023-03-01T09:30:59;6.13;;;1.90;;
5349;SDS011;2697;42.144;24.794;2023-03-01T09:33:25;2.97;;;1.53;;
5349;SDS011;2697;42.144;24.794;2023-03-01T09:35:55;1.93;;;1.70;;
5349;SDS011;2697;42.144;24.794;2023-03-01T09:38:32;3.60;;;2.27;;
5349;SDS011;2697;42.144;24.794;2023-03-01T09:40:58;2.17;;;1.50;;
5349;SDS011;2697;42.144;24.794;2023-03-01T09:46:09;4.63;;;1.40;;
5349;SDS011;2697;42.144;24.794;2023-03-01T09:48:39;1.70;;;1.60;;
5349;SDS011;2697;42.144;24.794;2023-03-01T09:51:09;3.40;;;2.17;;
5349;SDS011;2697;42.144;24.794;2023-03-01T09:53:43;2.03;;;1.70;;
5349;SDS011;2697;42.144;24.794;2023-03-01T09:56:13;2.20;;;1.60;;
5349;SDS011;2697;42.144;24.794;2023-03-01T10:04:36;1.07;;;0.97;;
5349;SDS011;2697;42.144;24.794;2023-03-01T10:09:45;1.67;;;1.33;;
5349;SDS011;2697;42.144;24.794;2023-03-01T10:12:13;2.10;;;1.87;;
5349;SDS011;2697;42.144;24.794;2023-03-01T10:14:49;2.10;;;1.67;;
5349;SDS011;2697;42.144;24.794;2023-03-01T10:19:50;7.00;;;1.90;;
5349;SDS011;2697;42.144;24.794;2023-03-01T10:24:48;1.90;;;1.40;;
5349;SDS011;2697;42.144;24.794;2023-03-01T10:32:31;7.33;;;2.10;;
5349;SDS011;2697;42.144;24.794;2023-03-01T10:34:57;1.90;;;1.03;;
5349;SDS011;2697;42.144;24.794;2023-03-01T10:37:23;2.50;;;1.50;;
5349;SDS011;2697;42.144;24.794;2023-03-01T10:42:27;2.50;;;1.50;;
5349;SDS011;2697;42.144;24.794;2023-03-01T10:44:53;1.47;;;1.27;;
5349;SDS011;2697;42.144;24.794;2023-03-01T10:49:52;4.63;;;1.80;;
5349;SDS011;2697;42.144;24.794;2023-03-01T10:52:21;7.30;;;1.17;;
5349;SDS011;2697;42.144;24.794;2023-03-01T10:54:56;5.77;;;1.80;;
5349;SDS011;2697;42.144;24.794;2023-03-01T10:57:34;1.80;;;1.53;;
5349;SDS011;2697;42.144;24.794;2023-03-01T11:00:14;2.10;;;1.63;;
5349;SDS011;2697;42.144;24.794;2023-03-01T11:02:42;2.70;;;2.00;;
5349;SDS011;2697;42.144;24.794;2023-03-01T11:08:13;1.57;;;1.00;;
5349;SDS011;2697;42.144;24.794;2023-03-01T11:10:32;1.80;;;1.20;;
5349;SDS011;2697;42.144;24.794;2023-03-01T11:13:13;1.40;;;1.30;;
5349;SDS011;2697;42.144;24.794;2023-03-01T11:15:41;0.70;;;0.70;;
5349;SDS011;2697;42.144;24.794;2023-03-01T11:18:20;1.77;;;1.53;;
5349;SDS011;2697;42.144;24.794;2023-03-01T11:20:48;1.20;;;1.10;;
5349;SDS011;2697;42.144;24.794;2023-03-01T11:23:16;3.13;;;1.10;;
5349;SDS011;2697;42.144;24.794;2023-03-01T11:25:51;2.53;;;1.73;;
5349;SDS011;2697;42.144;24.794;2023-03-01T11:28:22;1.43;;;1.30;;
5349;SDS011;2697;42.144;24.794;2023-03-01T11:38:56;3.20;;;1.13;;
5349;SDS011;2697;42.144;24.794;2023-03-01T11:41:30;1.17;;;1.07;;
5349;SDS011;2697;42.144;24.794;2023-03-01T11:46:40;4.30;;;1.10;;
5349;SDS011;2697;42.144;24.794;2023-03-01T12:05:59;4.40;;;1.47;;
5349;SDS011;2697;42.144;24.794;2023-03-01T12:11:36;2.70;;;1.93;;
5349;SDS011;2697;42.144;24.794;2023-03-01T12:16:59;2.73;;;1.77;;
5349;SDS011;2697;42.144;24.794;2023-03-01T12:38:50;1.83;;;1.70;;
5349;SDS011;2697;42.144;24.794;2023-03-01T12:52:21;1.47;;;1.37;;
5349;SDS011;2697;42.144;24.794;2023-03-01T12:54:53;6.83;;;1.20;;
5349;SDS011;2697;42.144;24.794;2023-03-01T13:02:53;2.47;;;1.77;;
5349;SDS011;2697;42.144;24.794;2023-03-01T13:11:21;2.47;;;2.27;;
5349;SDS011;2697;42.144;24.794;2023-03-01T13:13:48;2.27;;;1.53;;
5349;SDS011;2697;42.144;24.794;2023-03-01T13:19:36;2.97;;;2.53;;
5349;SDS011;2697;42.144;24.794;2023-03-01T13:21:43;1.90;;;1.80;;
5349;SDS011;2697;42.144;24.794;2023-03-01T13:29:45;2.30;;;1.43;;
5349;SDS011;2697;42.144;24.794;2023-03-01T13:32:25;2.87;;;2.03;;
5349;SDS011;2697;42.144;24.794;2023-03-01T13:34:59;3.10;;;2.00;;
5349;SDS011;2697;42.144;24.794;2023-03-01T13:37:29;2.17;;;1.80;;
5349;SDS011;2697;42.144;24.794;2023-03-01T13:39:57;5.07;;;2.07;;
5349;SDS011;2697;42.144;24.794;2023-03-01T13:42:43;4.97;;;2.20;;
5349;SDS011;2697;42.144;24.794;2023-03-01T13:45:32;1.30;;;1.20;;
5349;SDS011;2697;42.144;24.794;2023-03-01T13:50:45;2.10;;;1.80;;
5349;SDS011;2697;42.144;24.794;2023-03-01T13:53:19;2.83;;;2.27;;
5349;SDS011;2697;42.144;24.794;2023-03-01T13:55:48;3.23;;;2.00;;
5349;SDS011;2697;42.144;24.794;2023-03-01T13:58:43;2.30;;;2.10;;
5349;SDS011;2697;42.144;24.794;2023-03-01T14:01:33;2.60;;;2.37;;
5349;SDS011;2697;42.144;24.794;2023-03-01T14:04:00;7.10;;;2.37;;
5349;SDS011;2697;42.144;24.794;2023-03-01T14:06:27;7.80;;;2.70;;
5349;SDS011;2697;42.144;24.794;2023-03-01T14:09:02;3.40;;;3.10;;
5349;SDS011;2697;42.144;24.794;2023-03-01T14:11:50;2.17;;;1.97;;
5349;SDS011;2697;42.144;24.794;2023-03-01T14:19:43;5.50;;;2.70;;
5349;SDS011;2697;42.144;24.794;2023-03-01T14:22:25;5.93;;;2.63;;
5349;SDS011;2697;42.144;24.794;2023-03-01T14:24:56;2.23;;;1.53;;
5349;SDS011;2697;42.144;24.794;2023-03-01T14:27:26;3.33;;;2.50;;
5349;SDS011;2697;42.144;24.794;2023-03-01T14:30:02;4.57;;;2.20;;
5349;SDS011;2697;42.144;24.794;2023-03-01T14:32:37;10.13;;;2.87;;
5349;SDS011;2697;42.144;24.794;2023-03-01T14:35:03;9.03;;;2.33;;
5349;SDS011;2697;42.144;24.794;2023-03-01T14:37:30;3.67;;;2.80;;
5349;SDS011;2697;42.144;24.794;2023-03-01T14:39:58;2.60;;;2.40;;
5349;SDS011;2697;42.144;24.794;2023-03-01T14:42:28;2.83;;;2.13;;
5349;SDS011;2697;42.144;24.794;2023-03-01T14:44:59;4.40;;;3.07;;
5349;SDS011;2697;42.144;24.794;2023-03-01T14:47:27;3.27;;;2.90;;
5349;SDS011;2697;42.144;24.794;2023-03-01T14:50:07;7.47;;;3.17;;
5349;SDS011;2697;42.144;24.794;2023-03-01T14:52:41;6.63;;;3.00;;
5349;SDS011;2697;42.144;24.794;2023-03-01T14:55:16;3.30;;;2.53;;
5349;SDS011;2697;42.144;24.794;2023-03-01T14:57:45;6.17;;;3.83;;
5349;SDS011;2697;42.144;24.794;2023-03-01T15:00:23;4.20;;;3.23;;
5349;SDS011;2697;42.144;24.794;2023-03-01T15:02:51;11.00;;;4.30;;
5349;SDS011;2697;42.144;24.794;2023-03-01T15:05:39;3.10;;;2.77;;
5349;SDS011;2697;42.144;24.794;2023-03-01T15:08:04;2.67;;;2.40;;
5349;SDS011;2697;42.144;24.794;2023-03-01T15:10:32;3.30;;;2.17;;
5349;SDS011;2697;42.144;24.794;2023-03-01T15:15:39;3.13;;;1.67;;
5349;SDS011;2697;42.144;24.794;2023-03-01T15:20:41;3.60;;;2.63;;
5349;SDS011;2697;42.144;24.794;2023-03-01T15:23:16;7.00;;;2.53;;
5349;SDS011;2697;42.144;24.794;2023-03-01T15:25:46;3.17;;;2.20;;
5349;SDS011;2697;42.144;24.794;2023-03-01T15:28:12;2.63;;;2.10;;
5349;SDS011;2697;42.144;24.794;2023-03-01T15:30:45;5.10;;;2.77;;
5349;SDS011;2697;42.144;24.794;2023-03-01T15:35:48;4.67;;;2.87;;
5349;SDS011;2697;42.144;24.794;2023-03-01T15:38:35;2.90;;;2.40;;
5349;SDS011;2697;42.144;24.794;2023-03-01T15:41:23;4.03;;;2.63;;
5349;SDS011;2697;42.144;24.794;2023-03-01T15:43:55;5.83;;;2.83;;
5349;SDS011;2697;42.144;24.794;2023-03-01T15:46:26;5.27;;;2.90;;
5349;SDS011;2697;42.144;24.794;2023-03-01T15:48:56;12.90;;;2.30;;
5349;SDS011;2697;42.144;24.794;2023-03-01T15:51:30;3.87;;;3.33;;
5349;SDS011;2697;42.144;24.794;2023-03-01T15:54:05;7.30;;;2.50;;
5349;SDS011;2697;42.144;24.794;2023-03-01T15:56:37;8.20;;;2.97;;
5349;SDS011;2697;42.144;24.794;2023-03-01T15:59:03;1.40;;;1.30;;
5349;SDS011;2697;42.144;24.794;2023-03-01T16:01:29;4.50;;;2.20;;
5349;SDS011;2697;42.144;24.794;2023-03-01T16:03:55;4.93;;;2.60;;
5349;SDS011;2697;42.144;24.794;2023-03-01T16:06:23;3.87;;;3.13;;
5349;SDS011;2697;42.144;24.794;2023-03-01T16:08:48;2.03;;;1.90;;
5349;SDS011;2697;42.144;24.794;2023-03-01T16:11:15;3.10;;;2.00;;
5349;SDS011;2697;42.144;24.794;2023-03-01T16:13:43;4.13;;;2.57;;
5349;SDS011;2697;42.144;24.794;2023-03-01T16:16:10;4.67;;;2.83;;
5349;SDS011;2697;42.144;24.794;2023-03-01T16:18:44;3.67;;;1.83;;
5349;SDS011;2697;42.144;24.794;2023-03-01T16:21:29;5.20;;;3.73;;
5349;SDS011;2697;42.144;24.794;2023-03-01T16:23:54;5.30;;;4.07;;
5349;SDS011;2697;42.144;24.794;2023-03-01T16:26:19;6.17;;;3.10;;
5349;SDS011;2697;42.144;24.794;2023-03-01T16:28:45;7.83;;;4.97;;
5349;SDS011;2697;42.144;24.794;2023-03-01T16:31:11;9.80;;;5.40;;
5349;SDS011;2697;42.144;24.794;2023-03-01T16:33:39;10.57;;;6.20;;
5349;SDS011;2697;42.144;24.794;2023-03-01T16:36:09;7.60;;;5.23;;
5349;SDS011;2697;42.144;24.794;2023-03-01T16:38:36;10.90;;;6.40;;
5349;SDS011;2697;42.144;24.794;2023-03-01T16:41:03;12.70;;;4.00;;
5349;SDS011;2697;42.144;24.794;2023-03-01T16:43:29;7.80;;;4.83;;
5349;SDS011;2697;42.144;24.794;2023-03-01T16:45:55;9.70;;;5.73;;
5349;SDS011;2697;42.144;24.794;2023-03-01T16:48:21;11.93;;;7.17;;
5349;SDS011;2697;42.144;24.794;2023-03-01T16:50:54;9.37;;;4.80;;
5349;SDS011;2697;42.144;24.794;2023-03-01T16:53:21;17.87;;;7.20;;
5349;SDS011;2697;42.144;24.794;2023-03-01T16:55:52;14.40;;;8.50;;
5349;SDS011;2697;42.144;24.794;2023-03-01T16:58:18;11.93;;;7.80;;
5349;SDS011;2697;42.144;24.794;2023-03-01T17:00:43;17.70;;;7.70;;
5349;SDS011;2697;42.144;24.794;2023-03-01T17:03:09;9.53;;;5.50;;
5349;SDS011;2697;42.144;24.794;2023-03-01T17:05:34;8.80;;;5.67;;
5349;SDS011;2697;42.144;24.794;2023-03-01T17:07:59;13.50;;;6.27;;
5349;SDS011;2697;42.144;24.794;2023-03-01T17:10:25;7.23;;;4.63;;
5349;SDS011;2697;42.144;24.794;2023-03-01T17:12:50;14.33;;;5.43;;
5349;SDS011;2697;42.144;24.794;2023-03-01T17:15:16;13.10;;;7.20;;
5349;SDS011;2697;42.144;24.794;2023-03-01T17:17:41;13.03;;;6.43;;
5349;SDS011;2697;42.144;24.794;2023-03-01T17:20:07;10.80;;;6.90;;
5349;SDS011;2697;42.144;24.794;2023-03-01T17:22:33;8.83;;;4.27;;
5349;SDS011;2697;42.144;24.794;2023-03-01T17:24:58;12.27;;;5.80;;